Idaho Falls Regional Airport
KIDA : now visible

Airfield :











YOU CAN JOIN US ON...

 
LOGIN :

Register | Disclaimer

   EN    FR    IT 

 









Legend :    VFR   Marginal VFR   IFR   Intensive IFR   Very Intensive IFR
Visi :
Ceiling :
>= 8 km
>= 3000ft
5 to 8 km
1000 to 3000 ft
1500m to 5 km
500 to 1000 ft
800 to 1500m
200 to 500 ft
< 800m
< 200 ft
Symbols :   Thunderstorms  Fog  Heavy snow  Heavy precipitations  Wind > 20 kt






- Airport Elevation : 4744 ft
- IATA code : IDA


KIDA - Idaho Falls Regional

CURRENT METAR :
  • 262253Z AUTO 33003KT 7SM OVC040 00/M01 A2998 RMK AO2 SLP175 T00001011

EXPIRED METARs :
  • 262153Z 36003KT 7SM OVC044 01/M01 A3000 RMK AO2 UPE05 SLP177 P0000 T00061011
  • 262053Z 36004KT 6SM UP BR OVC021 00/M02 A3002 RMK AO2 UPE14B34 SLP185 P0000 60000 T00001017 58024

TAF KIDA
Valid from the 27 at 00:00 until the 28 at 00:00 UTC


262320Z 2700/2724 VRB05KT 6SM BR VCSH SCT020 OVC040
FM270400 23011G21KT 1SM -SN BKN007 OVC015
FM271100 22018KT P6SM VCSH OVC007
FM271900 24012KT P6SM VCSH BKN007 BKN020



MET'MAP, your aeronautical weather chart ! - Copyright ORBIFLY December 2007 - Disclaimer

ORBIFLY MET'MAP TEAM :

Programming & Development : Alexandra Zaïnal
Concept & original design : Baudouin d'Aumeries
Assistance for programming : Marc-Olivier Méhu
Technical & hardware support : Manuel Goepfert

Contact : metmap@orbifly.com




SOURCES & CREDITS :

   NOAA       Earth
Advisory